x

Monterey - 27nm Wnw Of Monterey, Ca (46042) Wave Buoy

1:50pm - Tue 16th Oct 2018 All times are PDT. -7 hours from GMT.

  • Sig Wave height 3.6ft
  • Swell Direction
  • Peak Period 15s
  • Average Period 8s
  • Wind
    9mph, 11mph gusts
  • Sea Temp 63°f
  • Air Temp 62°f
  • Sea Pressure 1017.6mb
  • Monterey - 27nm Wnw Of Monterey, Ca
  • Monterey - 27nm Wnw Of Monterey, Ca

More Historic Weather Station data

Upgrade to MSW Pro to gain access to the past 30 days of data for over 8000 Wavebouys and Weather Stations around the globe.

Join

Comparision Forecast

View Surf forecast
   
Tue 10/16 1:50pm 3.5ft 15s 8s 9 11 mph 1017.6mb 63f 62f
12:50pm 3.5ft 12s 8s 7 9 mph 1018.6mb 63f 62f
11:50am 3.5ft 16s 9s 4 4 mph 1019.1mb 63f 61f
10:50am 3.5ft 15s 9s 2 4 mph 1019.2mb 62f 60f
8:50am 3.5ft 16s 9s 2 4 mph 1019.1mb 62f 60f
7:50am 3.5ft 16s 8s 4 4 mph 1018.6mb 62f 60f
6:50am 3ft 15s 9s 2 2 mph 1018.6mb 62f 60f
5:50am 3.5ft 15s 9s 2 2 mph 1018.7mb 62f 60f
4:50am 3.5ft 16s 10s 2 2 mph 1018.6mb 62f 60f
3:50am 3.5ft 16s 8s 4 4 mph 1018.4mb 62f 60f
2:50am 3.5ft 16s 9s 2 4 mph 1018.6mb 62f 60f
1:50am 3.5ft 15s 9s 2 4 mph 1018.7mb 62f 60f
Mon 10/15 11:50pm 4ft 16s 8s 7 7 mph 1019.1mb 62f 61f
10:50pm 3.5ft 15s 7s 9 11 mph 1019.1mb 62f 62f
9:50pm 4ft 16s 7s 9 11 mph 1019.1mb 63f 63f
8:50pm 4ft 15s 7s 9 11 mph 1018.9mb 63f 63f
7:50pm 4ft 16s 7s 11 13 mph 1018.6mb 63f 62f
6:50pm 4.5ft 16s 7s 13 16 mph 1018.4mb 63f 62f
5:50pm 4.5ft 16s 8s 13 16 mph 1018.2mb 64f 63f
4:50pm 4ft 15s 8s 11 13 mph 1018.4mb 64f 63f
3:50pm 4ft 16s 8s 11 11 mph 1018.5mb 64f 63f
1:50pm 4.5ft 15s 8s 7 9 mph 1019.1mb 64f 62f
12:50pm 4.5ft 16s 7s 2 4 mph 1019.5mb 64f 60f
11:50am 4.5ft 15s 7s 2 4 mph 1019.8mb 63f 60f
10:50am 4.5ft 16s 7s 7 9 mph 1019.5mb 63f 60f
9:50am 4.5ft 17s 8s 7 9 mph 1019.4mb 63f 59f
8:50am 4.5ft 8s 8s 7 9 mph 1018.8mb 63f 58f
7:50am 4.5ft 16s 9s 4 7 mph 1018.3mb 62f 59f
6:50am 4.5ft 16s 9s 7 11 mph 1017.7mb 62f 57f
5:50am 5ft 16s 9s 4 9 mph 1017.2mb 62f 56f
4:50am 4.5ft 17s 9s 7 9 mph 1017.1mb 62f 57f
3:50am 4.5ft 17s 9s 4 7 mph 1016.7mb 62f 58f
2:50am 5ft 16s 9s 7 9 mph 1016.7mb 62f 58f
12:50am 4.5ft 17s 9s 7 11 mph 1016.2mb 62f 57f
Sun 10/14 10:50pm 5ft 16s 9s 9 13 mph 1015.3mb 62f 58f
9:50pm 5ft 10s 8s 9 11 mph 1015.1mb 62f 58f
6:50pm 5.5ft 10s 9s 9 11 mph 1013.8mb 63f 59f